Time;durP1;ratioP1;P1;durP2;ratioP2;P2;SDS_P1;SDS_P2;PMS_P1;PMS_P2;Temp;Humidity;BMP_temperature;BMP_pressure;BME280_temperature;BME280_humidity;BME280_pressure;Samples;Min_cycle;Max_cycle;Signal;HPM_P1;HPM_P2
2022/12/15 00:39:23;;;;;;;83.70;43.70;;;;;;;-3.82;79.35;98509.08;210656;1294;243493;-65
2022/12/15 00:44:28;;;;;;;95.30;46.80;;;;;;;-3.86;79.33;98506.89;210457;1295;141669;-66
2022/12/15 01:21:55;;;;;;;85.90;43.00;;;;;;;-3.79;79.71;98521.36;210617;1295;222727;-65
2022/12/15 01:26:59;;;;;;;99.40;45.40;;;;;;;-3.78;79.64;98520.83;210531;1288;142613;-65
2022/12/15 01:32:05;;;;;;;99.30;47.90;;;;;;;-3.80;79.53;98518.38;208755;1295;140361;-65
2022/12/15 01:37:09;;;;;;;105.90;46.50;;;;;;;-3.88;79.50;98522.68;209028;1281;140155;-66
2022/12/15 01:42:14;;;;;;;104.30;42.10;;;;;;;-3.90;79.67;98523.84;209506;1295;252468;-63
2022/12/15 01:47:24;;;;;;;96.90;41.80;;;;;;;-3.85;79.52;98515.44;210458;1294;140302;-62
2022/12/15 01:52:29;;;;;;;94.00;41.70;;;;;;;-3.82;79.63;98519.75;210284;1285;140355;-63
2022/12/15 01:57:35;;;;;;;95.50;46.00;;;;;;;-3.84;79.59;98524.55;210582;1295;140680;-63
2022/12/15 02:02:41;;;;;;;91.90;41.90;;;;;;;-3.85;79.62;98531.26;210012;1301;140016;-63
2022/12/15 02:07:45;;;;;;;86.40;42.30;;;;;;;-3.87;79.84;98535.11;210435;1287;140685;-63
2022/12/15 02:13:05;;;;;;;73.40;38.80;;;;;;;-3.91;79.77;98544.98;210295;1294;140613;-63
2022/12/15 02:18:21;;;;;;;74.90;37.00;;;;;;;-3.95;79.67;98549.20;209680;1294;140111;-63
2022/12/15 02:23:51;;;;;;;78.40;41.40;;;;;;;-3.86;79.66;98556.69;210415;1295;140222;-63
2022/12/15 02:29:07;;;;;;;84.10;45.10;;;;;;;-3.81;79.72;98560.66;209968;1297;140874;-63
2022/12/15 02:34:22;;;;;;;82.60;40.00;;;;;;;-3.80;79.84;98562.57;210508;1294;139619;-63
2022/12/15 02:39:28;;;;;;;83.10;38.70;;;;;;;-3.82;79.79;98571.73;210473;1294;139796;-63
2022/12/15 02:44:52;;;;;;;80.60;40.60;;;;;;;-3.84;79.82;98577.66;210247;1294;139971;-63
2022/12/15 02:50:24;;;;;;;73.90;39.00;;;;;;;-3.86;79.94;98576.50;210383;1301;140790;-63
2022/12/15 02:55:38;;;;;;;71.60;37.60;;;;;;;-3.87;79.87;98579.20;210315;1301;234970;-63
2022/12/15 03:00:56;;;;;;;73.20;37.20;;;;;;;-3.89;79.75;98580.25;210280;1294;141021;-66
2022/12/15 03:06:04;;;;;;;77.30;36.30;;;;;;;-3.83;79.45;98587.65;210317;1291;140032;-63
2022/12/15 03:11:10;;;;;;;78.40;44.10;;;;;;;-3.80;79.80;98591.80;210367;1280;141021;-63
2022/12/15 03:16:15;;;;;;;68.50;38.40;;;;;;;-3.81;79.71;98597.40;210069;1295;140052;-63
2022/12/15 03:21:19;;;;;;;70.20;38.40;;;;;;;-3.81;79.85;98607.17;209450;1279;142511;-63
2022/12/15 03:26:25;;;;;;;80.50;41.20;;;;;;;-3.85;79.79;98615.41;210385;1289;141124;-64
2022/12/15 03:31:29;;;;;;;78.00;40.70;;;;;;;-3.83;79.66;98618.70;209593;1294;142025;-64
2022/12/15 03:36:33;;;;;;;77.80;40.50;;;;;;;-3.82;79.57;98617.52;210464;1292;141014;-67
2022/12/15 03:41:38;;;;;;;77.60;39.40;;;;;;;-3.86;79.60;98623.30;210259;1295;140742;-64
2022/12/15 03:46:44;;;;;;;73.20;41.30;;;;;;;-3.87;79.70;98625.48;210567;1295;139850;-64
2022/12/15 03:51:48;;;;;;;83.10;40.90;;;;;;;-3.86;79.97;98627.85;210468;1295;140202;-62
2022/12/15 03:56:52;;;;;;;69.20;37.20;;;;;;;-3.87;79.75;98636.48;208568;1285;140201;-65
2022/12/15 04:01:57;;;;;;;82.00;39.50;;;;;;;-3.90;79.98;98636.62;210437;1299;140298;-63
2022/12/15 04:07:03;;;;;;;82.70;42.70;;;;;;;-3.91;79.99;98641.64;210272;1281;141745;-63
2022/12/15 04:12:10;;;;;;;80.30;42.40;;;;;;;-3.90;80.06;98648.44;210422;1281;140303;-64
2022/12/15 04:17:16;;;;;;;77.50;37.10;;;;;;;-3.83;79.88;98650.40;210332;1292;140170;-64
2022/12/15 04:22:20;;;;;;;80.40;40.50;;;;;;;-3.77;79.94;98654.83;210461;1290;140477;-64
2022/12/15 05:32:07;;;;;;;80.40;41.30;;;;;;;-3.80;80.15;98748.88;210498;1295;245758;-62
2022/12/15 05:37:12;;;;;;;74.20;40.10;;;;;;;-3.83;80.09;98756.63;209842;1293;139927;-63
2022/12/15 05:42:17;;;;;;;79.60;38.90;;;;;;;-3.85;80.25;98771.66;210483;1295;139743;-63
2022/12/15 05:47:22;;;;;;;82.60;37.70;;;;;;;-3.85;79.83;98775.96;208459;1285;139769;-63
2022/12/15 05:52:26;;;;;;;91.60;42.10;;;;;;;-3.85;79.96;98785.66;209890;1293;142669;-64
2022/12/15 05:57:29;;;;;;;94.70;45.30;;;;;;;-3.80;80.23;98794.34;210590;1294;139756;-65
2022/12/15 06:02:34;;;;;;;95.20;48.80;;;;;;;-3.78;80.47;98800.52;210438;1295;139919;-61
2022/12/15 06:07:38;;;;;;;93.70;41.30;;;;;;;-3.76;80.53;98802.73;210560;1295;141244;-67
2022/12/15 06:12:43;;;;;;;81.00;41.20;;;;;;;-3.76;80.61;98815.46;208948;1292;139777;-66
2022/12/15 06:17:48;;;;;;;94.10;41.00;;;;;;;-3.81;80.19;98822.21;210275;1292;139661;-72
2022/12/15 06:22:52;;;;;;;82.40;41.00;;;;;;;-3.77;80.10;98827.05;210295;1295;140554;-71
2022/12/15 06:27:56;;;;;;;88.20;43.60;;;;;;;-3.72;80.36;98840.37;210384;1295;141522;-68
2022/12/15 06:33:06;;;;;;;91.70;46.60;;;;;;;-3.69;80.29;98849.88;210268;1298;140747;-66
2022/12/15 06:38:10;;;;;;;75.70;42.70;;;;;;;-3.72;80.46;98863.93;210498;1295;140445;-68
2022/12/15 06:43:15;;;;;;;83.90;39.80;;;;;;;-3.75;80.45;98876.27;210114;1293;141195;-67
2022/12/15 06:48:20;;;;;;;91.70;43.30;;;;;;;-3.68;80.49;98882.83;210285;1295;140633;-67
2022/12/15 06:53:24;;;;;;;102.90;52.10;;;;;;;-3.64;80.38;98898.86;210205;1295;141555;-65
2022/12/15 06:58:29;;;;;;;88.00;43.80;;;;;;;-3.62;80.52;98908.20;210350;1293;140826;-70
2022/12/15 07:03:35;;;;;;;68.30;33.10;;;;;;;-3.61;80.62;98910.59;210470;1290;141086;-69
2022/12/15 07:08:40;;;;;;;90.50;43.50;;;;;;;-3.64;80.30;98923.38;210344;1294;140635;-69
2022/12/15 07:13:48;;;;;;;92.50;44.60;;;;;;;-3.63;80.26;98922.17;210349;1291;141233;-73
2022/12/15 07:18:52;;;;;;;;;;;;;;;-3.57;80.58;98925.44;210259;1295;140456;-71
2022/12/15 07:23:56;;;;;;;95.20;47.00;;;;;;;-3.58;80.59;98940.73;210990;1294;132128;-69
2022/12/15 07:29:03;;;;;;;90.50;45.10;;;;;;;-3.57;80.57;98954.25;210410;1301;139667;-70
2022/12/15 07:34:08;;;;;;;84.10;39.80;;;;;;;-3.56;80.50;98954.48;210260;1290;141550;-69
2022/12/15 07:39:12;;;;;;;103.40;51.50;;;;;;;-3.50;80.34;98957.64;210204;1300;141931;-70
2022/12/15 07:44:17;;;;;;;108.80;51.20;;;;;;;-3.45;80.43;98960.77;210429;1292;141027;-71
2022/12/15 07:52:43;;;;;;;107.30;53.80;;;;;;;-3.35;80.47;98988.51;207733;1343;657694;-64
2022/12/15 07:57:47;;;;;;;92.20;45.90;;;;;;;-3.33;80.18;99002.34;208226;1308;220388;-66
2022/12/15 08:02:51;;;;;;;94.40;45.80;;;;;;;-3.26;80.48;99007.32;208007;1307;300695;-63
2022/12/15 08:07:57;;;;;;;94.60;44.90;;;;;;;-3.23;80.41;99011.36;208455;1307;140692;-65
2022/12/15 08:13:02;;;;;;;78.60;38.40;;;;;;;-3.21;80.30;99022.30;206662;1310;139173;-67
2022/12/15 08:18:08;;;;;;;92.10;40.00;;;;;;;-3.20;80.34;99027.04;205347;1312;140259;-67
2022/12/15 08:23:13;;;;;;;90.00;47.50;;;;;;;-3.12;80.22;99028.21;208563;1300;139597;-66
2022/12/15 08:28:17;;;;;;;91.60;48.30;;;;;;;-3.03;80.37;99044.67;208518;1305;138754;-65
2022/12/15 08:33:22;;;;;;;91.20;47.00;;;;;;;-2.95;80.57;99058.45;208447;1292;138796;-67
2022/12/15 08:38:26;;;;;;;94.00;46.00;;;;;;;-2.90;80.36;99061.48;205218;1314;138846;-67
2022/12/15 08:43:31;;;;;;;86.10;39.70;;;;;;;-2.83;80.15;99067.51;206808;1303;140299;-65
2022/12/15 08:48:37;;;;;;;99.10;49.10;;;;;;;-2.75;79.94;99074.27;209306;1304;141158;-65
2022/12/15 08:53:42;;;;;;;94.50;47.00;;;;;;;-2.77;79.91;99081.98;210012;1294;139788;-64
2022/12/15 08:58:49;;;;;;;97.00;47.60;;;;;;;-2.73;80.21;99080.97;210181;1304;139301;-67
2022/12/15 09:03:55;;;;;;;87.10;38.00;;;;;;;-2.61;80.12;99080.44;210111;1306;140668;-67
2022/12/15 09:09:03;;;;;;;95.40;48.50;;;;;;;-2.53;79.95;99088.91;210010;1298;140139;-65
2022/12/15 09:14:07;;;;;;;93.10;47.00;;;;;;;-2.36;79.99;99093.55;209981;1289;217325;-66
2022/12/15 09:19:12;;;;;;;96.90;49.10;;;;;;;-2.26;79.70;99099.73;209952;1297;138840;-66
2022/12/15 09:24:18;;;;;;;93.70;45.20;;;;;;;-2.23;79.68;99099.59;209951;1288;139067;-67
2022/12/15 09:29:36;;;;;;;103.30;49.10;;;;;;;-2.18;79.67;99106.73;210197;1297;139510;-66
2022/12/15 09:34:41;;;;;;;69.60;34.50;;;;;;;-2.14;79.58;99111.76;209961;1298;139613;-67
2022/12/15 09:39:45;;;;;;;105.80;52.90;;;;;;;-2.06;79.20;99118.25;210120;1298;140596;-67
2022/12/15 09:44:58;;;;;;;109.80;52.30;;;;;;;-2.01;79.33;99118.14;210165;1298;139258;-67
2022/12/15 09:50:08;;;;;;;112.50;50.50;;;;;;;-1.99;79.16;99117.68;209648;1298;140635;-66
2022/12/15 09:55:21;;;;;;;96.70;47.60;;;;;;;-1.96;79.34;99124.10;210232;1298;139162;-66
2022/12/15 10:00:47;;;;;;;111.20;50.10;;;;;;;-1.89;78.94;99129.79;210038;1298;139828;-66
2022/12/15 10:06:19;;;;;;;100.20;52.90;;;;;;;-1.74;78.90;99138.13;207634;1305;139942;-65
2022/12/15 10:11:47;;;;;;;118.00;58.00;;;;;;;-1.60;78.44;99143.27;207821;1303;140709;-67
2022/12/15 10:17:16;;;;;;;72.70;35.60;;;;;;;-1.53;78.89;99144.98;207780;1288;139458;-68
2022/12/15 10:22:29;;;;;;;102.60;53.40;;;;;;;-1.56;78.34;99147.25;206760;1303;139678;-67
2022/12/15 10:27:56;;;;;;;94.80;44.30;;;;;;;-1.50;78.69;99154.41;210085;1288;139438;-68
2022/12/15 10:33:04;;;;;;;116.20;51.60;;;;;;;-1.29;78.33;99154.89;210024;1297;139883;-65
2022/12/15 10:38:50;;;;;;;99.80;51.60;;;;;;;-1.08;78.14;99156.61;210027;1304;140058;-64
2022/12/15 10:43:56;;;;;;;119.60;56.60;;;;;;;-1.03;77.85;99153.14;209706;1295;140882;-64
2022/12/15 10:49:07;;;;;;;101.50;54.00;;;;;;;-0.95;78.09;99158.02;210237;1297;141495;-65
2022/12/15 10:54:15;;;;;;;88.40;43.50;;;;;;;-0.81;78.26;99156.89;210448;1288;140539;-67
2022/12/15 10:59:32;;;;;;;105.90;47.50;;;;;;;-0.78;77.69;99159.45;210234;1301;140625;-65
2022/12/15 11:04:37;;;;;;;101.90;53.00;;;;;;;-0.80;77.40;99167.58;210255;1301;140556;-67
2022/12/15 11:09:41;;;;;;;104.80;52.10;;;;;;;-0.84;76.96;99170.09;210453;1296;139482;-67
2022/12/15 11:14:50;;;;;;;89.10;44.90;;;;;;;-0.76;77.33;99172.85;210417;1302;140062;-66
2022/12/15 11:20:01;;;;;;;61.20;31.90;;;;;;;-0.65;77.20;99174.90;210425;1292;140032;-66
2022/12/15 11:25:34;;;;;;;87.00;41.90;;;;;;;-0.63;76.75;99179.88;210324;1295;140133;-66
2022/12/15 11:30:46;;;;;;;89.10;47.20;;;;;;;-0.53;76.57;99189.89;208975;1289;140856;-65
2022/12/15 11:36:17;;;;;;;87.10;44.10;;;;;;;-0.48;76.25;99202.63;208899;1301;139462;-64
2022/12/15 11:41:41;;;;;;;94.10;47.50;;;;;;;-0.50;76.42;99211.73;210449;1288;140570;-66
2022/12/15 11:46:55;;;;;;;92.20;47.80;;;;;;;-0.52;76.19;99227.98;210326;1293;141327;-68
2022/12/15 11:52:09;;;;;;;95.50;44.30;;;;;;;-0.53;76.06;99234.77;210495;1301;140343;-68
2022/12/15 11:57:39;;;;;;;98.70;50.50;;;;;;;-0.45;76.11;99235.79;210660;1295;142054;-68
2022/12/15 12:03:07;;;;;;;84.20;45.70;;;;;;;-0.43;76.03;99245.16;210467;1292;139819;-67
2022/12/15 12:08:34;;;;;;;92.60;51.20;;;;;;;-0.46;76.18;99248.13;210290;1301;139806;-68
2022/12/15 12:13:57;;;;;;;96.90;51.10;;;;;;;-0.42;76.15;99250.27;210181;1295;141592;-68
2022/12/15 12:19:19;;;;;;;102.90;47.00;;;;;;;-0.43;76.11;99256.09;210372;1295;139341;-69
2022/12/15 12:24:31;;;;;;;91.30;50.30;;;;;;;-0.39;75.87;99253.78;208635;1297;141349;-68
2022/12/15 12:29:59;;;;;;;109.70;52.90;;;;;;;-0.39;75.84;99251.45;207210;1304;141333;-69
2022/12/15 12:35:08;;;;;;;;;;;;;;;-0.41;75.74;99251.05;206880;1301;140212;-70
2022/12/15 12:40:39;;;;;;;77.50;45.00;;;;;;;-0.56;75.47;99260.45;207841;1292;126425;-65
2022/12/15 12:46:24;;;;;;;97.30;50.70;;;;;;;-0.69;75.50;99264.67;208152;1295;140245;-68
2022/12/15 12:51:33;;;;;;;88.10;51.20;;;;;;;-0.71;75.37;99272.48;209090;1302;140085;-68
2022/12/15 12:56:41;;;;;;;89.80;50.10;;;;;;;-0.82;75.25;99275.38;209286;1295;140930;-69
2022/12/15 13:01:48;;;;;;;90.20;51.90;;;;;;;-0.94;75.09;99286.61;210041;1285;140897;-68
2022/12/15 13:06:54;;;;;;;83.80;41.60;;;;;;;-1.04;75.29;99294.48;210227;1295;140029;-68
2022/12/15 13:12:00;;;;;;;96.00;50.20;;;;;;;-1.07;75.58;99305.49;210249;1297;140849;-69
2022/12/15 13:17:41;;;;;;;98.70;48.30;;;;;;;-1.14;75.48;99310.92;210157;1296;244426;-71
2022/12/15 13:22:47;;;;;;;94.30;50.00;;;;;;;-1.14;75.54;99306.73;210334;1301;139951;-69
2022/12/15 13:27:59;;;;;;;90.50;53.70;;;;;;;-1.15;75.34;99303.17;210345;1301;140148;-68
2022/12/15 13:33:17;;;;;;;122.20;61.50;;;;;;;-1.20;75.44;99301.81;210171;1292;139204;-72
2022/12/15 13:38:42;;;;;;;;;;;;;;;-1.22;75.66;99295.95;210296;1301;140110;-66
2022/12/15 13:43:48;;;;;;;85.40;46.20;;;;;;;-1.33;75.50;99292.34;211018;1293;126113;-68
2022/12/15 13:49:06;;;;;;;106.30;55.40;;;;;;;-1.39;75.61;99292.10;210451;1291;139110;-71
2022/12/15 13:54:17;;;;;;;91.30;46.90;;;;;;;-1.47;75.78;99296.86;210404;1296;139404;-71
2022/12/15 14:00:06;;;;;;;102.80;50.40;;;;;;;-1.50;75.58;99303.46;208980;1301;139730;-74
2022/12/15 14:05:11;;;;;;;98.00;51.40;;;;;;;-1.57;75.58;99306.04;210356;1293;217895;-72
2022/12/15 14:10:20;;;;;;;93.20;49.20;;;;;;;-1.67;75.92;99295.71;210319;1291;139351;-69
2022/12/15 14:15:28;;;;;;;;;;;;;;;-1.71;76.11;99303.88;210268;1293;140197;-68
2022/12/15 14:20:40;;;;;;;85.00;50.90;;;;;;;-1.80;76.17;99309.71;211089;1294;126295;-67
2022/12/15 14:25:54;;;;;;;82.40;43.30;;;;;;;-1.91;76.11;99307.29;210325;1287;140255;-67
2022/12/15 14:31:03;;;;;;;82.70;47.10;;;;;;;-2.00;76.28;99313.11;208417;1285;139029;-63
2022/12/15 14:36:11;;;;;;;98.80;50.80;;;;;;;-2.10;76.33;99320.64;210192;1301;139945;-67
2022/12/15 14:41:39;;;;;;;86.90;47.10;;;;;;;-2.13;76.46;99332.39;210182;1291;142186;-67
2022/12/15 14:46:47;;;;;;;81.90;44.70;;;;;;;-2.17;76.31;99330.41;210340;1295;143403;-67
2022/12/15 14:52:04;;;;;;;79.10;44.10;;;;;;;-2.22;76.39;99323.01;210284;1298;139689;-68
2022/12/15 14:57:23;;;;;;;78.70;44.50;;;;;;;-2.32;76.46;99331.38;210347;1301;139771;-65
2022/12/15 15:02:29;;;;;;;74.40;38.10;;;;;;;-2.39;76.68;99331.66;210107;1294;139485;-66
2022/12/15 15:07:37;;;;;;;75.40;37.10;;;;;;;-2.43;76.69;99345.20;210303;1285;139572;-65
2022/12/15 15:12:44;;;;;;;82.30;44.40;;;;;;;-2.35;76.77;99356.34;210453;1301;140727;-65
2022/12/15 15:17:51;;;;;;;78.70;40.50;;;;;;;-2.34;76.88;99367.07;210282;1293;140856;-65
2022/12/15 15:23:10;;;;;;;74.30;42.40;;;;;;;-2.37;76.79;99368.77;210247;1298;139621;-69
2022/12/15 15:28:28;;;;;;;82.50;40.80;;;;;;;-2.42;77.10;99380.73;210426;1295;141074;-67
2022/12/15 15:33:33;;;;;;;69.90;36.50;;;;;;;-2.43;77.23;99390.50;210480;1293;141187;-65
2022/12/15 15:38:39;;;;;;;70.40;33.50;;;;;;;-2.46;77.09;99395.42;210320;1295;139245;-68
2022/12/15 15:43:43;;;;;;;54.10;28.60;;;;;;;-2.49;77.12;99404.15;210299;1301;142727;-65
2022/12/15 15:48:48;;;;;;;46.40;24.80;;;;;;;-2.47;76.77;99418.16;210464;1294;140823;-65
2022/12/15 15:53:56;;;;;;;48.30;27.90;;;;;;;-2.38;76.88;99417.41;210234;1301;140662;-68
2022/12/15 15:59:10;;;;;;;44.00;21.90;;;;;;;-2.36;76.66;99421.36;208752;1293;141221;-67
2022/12/15 16:04:13;;;;;;;43.90;24.60;;;;;;;-2.40;76.73;99436.06;208440;1286;139475;-67
2022/12/15 16:09:18;;;;;;;50.30;25.30;;;;;;;-2.47;76.76;99447.42;210446;1295;140349;-69
2022/12/15 16:14:22;;;;;;;38.90;20.70;;;;;;;-2.49;76.90;99452.11;207960;1286;140945;-68
2022/12/15 16:19:27;;;;;;;47.50;22.30;;;;;;;-2.51;76.87;99455.60;209599;1291;139880;-67
2022/12/15 16:24:35;;;;;;;47.70;24.70;;;;;;;-2.44;76.69;99457.27;210044;1293;140219;-67
2022/12/15 16:29:41;;;;;;;44.00;23.40;;;;;;;-2.49;76.52;99457.30;209513;1282;140465;-66
2022/12/15 16:34:45;;;;;;;38.50;21.20;;;;;;;-2.55;76.74;99456.91;207014;1278;140700;-67
2022/12/15 16:39:49;;;;;;;44.50;25.30;;;;;;;-2.62;76.71;99454.50;209996;1281;140266;-69
2022/12/15 16:44:54;;;;;;;46.90;22.70;;;;;;;-2.63;76.87;99452.02;209983;1296;139685;-68
2022/12/15 16:49:58;;;;;;;43.30;22.00;;;;;;;-2.55;76.86;99450.78;209348;1295;142448;-68
2022/12/15 16:55:04;;;;;;;33.60;18.60;;;;;;;-2.50;76.89;99448.95;210007;1291;139506;-67
2022/12/15 17:00:23;;;;;;;34.10;17.10;;;;;;;-2.54;76.66;99451.14;210337;1300;140953;-66
2022/12/15 17:05:33;;;;;;;41.10;22.00;;;;;;;-2.60;76.54;99445.27;210210;1298;139555;-68
2022/12/15 17:10:37;;;;;;;39.20;22.20;;;;;;;-2.60;76.41;99445.59;210273;1293;140039;-69
2022/12/15 17:15:41;;;;;;;45.40;22.50;;;;;;;-2.59;76.38;99454.22;210286;1295;140320;-69
2022/12/15 17:20:46;;;;;;;42.00;22.30;;;;;;;-2.60;76.87;99457.99;210342;1294;140672;-69
2022/12/15 17:25:55;;;;;;;44.50;22.20;;;;;;;-2.60;76.77;99454.28;210383;1293;140665;-71
2022/12/15 17:31:22;;;;;;;34.50;17.70;;;;;;;-2.62;76.91;99455.38;210413;1295;140372;-65
2022/12/15 17:36:29;;;;;;;36.40;19.40;;;;;;;-2.62;76.73;99458.54;210376;1294;140232;-67
2022/12/15 17:41:34;;;;;;;41.90;24.20;;;;;;;-2.57;76.70;99455.73;210325;1295;140734;-66
2022/12/15 17:46:58;;;;;;;49.20;24.10;;;;;;;-2.60;76.44;99452.02;210324;1278;142035;-67
2022/12/15 17:52:15;;;;;;;47.30;25.70;;;;;;;-2.67;76.47;99441.81;210230;1294;139908;-69
2022/12/15 17:57:19;;;;;;;47.80;24.60;;;;;;;-2.74;76.53;99447.08;210456;1288;141097;-69
2022/12/15 18:02:22;;;;;;;78.40;44.10;;;;;;;-2.83;76.18;99457.58;210416;1293;139893;-67
2022/12/15 18:07:27;;;;;;;106.80;52.40;;;;;;;-2.96;76.08;99468.42;210386;1288;139694;-67
2022/12/15 18:12:30;;;;;;;50.80;27.30;;;;;;;-3.14;75.84;99472.34;210391;1291;139698;-69
2022/12/15 18:17:35;;;;;;;58.60;30.00;;;;;;;-3.37;75.50;99480.73;210399;1294;139686;-69
2022/12/15 18:22:39;;;;;;;56.70;31.30;;;;;;;-3.54;75.46;99488.17;210467;1295;142152;-67
2022/12/15 18:27:44;;;;;;;58.60;31.90;;;;;;;-3.67;75.41;99495.32;210374;1294;140382;-69
2022/12/15 18:32:54;;;;;;;57.50;27.70;;;;;;;-3.81;75.43;99501.58;207086;1279;144577;-70
2022/12/15 18:37:59;;;;;;;65.20;31.10;;;;;;;-4.04;75.13;99514.40;209285;1294;225428;-68
2022/12/15 18:43:15;;;;;;;57.60;30.20;;;;;;;-4.34;74.98;99517.09;208344;1293;140892;-69
2022/12/15 18:48:23;;;;;;;57.30;26.80;;;;;;;-4.68;74.52;99524.14;210544;1295;139705;-69
2022/12/15 18:53:31;;;;;;;72.00;31.00;;;;;;;-5.01;74.17;99514.86;210189;1295;140430;-68
2022/12/15 18:58:41;;;;;;;81.60;42.30;;;;;;;-5.25;74.37;99513.60;210339;1287;140113;-68
2022/12/15 19:03:44;;;;;;;68.20;30.40;;;;;;;-5.50;74.64;99510.84;210197;1279;140683;-68
2022/12/15 19:08:50;;;;;;;54.20;30.10;;;;;;;-5.76;73.76;99515.50;210417;1279;140002;-69
2022/12/15 19:13:54;;;;;;;63.50;27.40;;;;;;;-6.16;73.68;99515.77;210336;1294;140015;-68
2022/12/15 19:29:53;;;;;;;76.50;37.60;;;;;;;-6.76;74.22;99513.88;210466;1296;139645;-67
2022/12/15 19:34:57;;;;;;;53.90;25.30;;;;;;;-6.94;74.20;99511.91;210287;1302;140518;-66
2022/12/15 19:40:04;;;;;;;43.10;22.90;;;;;;;-7.20;74.06;99502.89;210269;1295;140030;-67
2022/12/15 19:45:14;;;;;;;;;;;;;;;-7.47;73.75;99501.84;210314;1288;141513;-67
2022/12/15 19:50:24;;;;;;;46.30;23.40;;;;;;;-7.76;73.18;99504.29;209679;1301;126912;-66
2022/12/15 19:55:32;;;;;;;53.10;25.80;;;;;;;-8.00;73.50;99506.14;208061;1288;140841;-66
2022/12/15 20:00:38;;;;;;;50.10;25.90;;;;;;;-8.23;73.97;99505.56;210464;1295;139781;-66
2022/12/15 20:05:43;;;;;;;58.10;28.80;;;;;;;-8.32;74.02;99508.60;209798;1293;707966;-67
2022/12/15 20:10:49;;;;;;;54.00;26.90;;;;;;;-8.52;73.41;99506.89;210354;1295;140043;-66
2022/12/15 20:15:55;;;;;;;57.20;25.20;;;;;;;-8.76;73.00;99518.05;209870;1292;141039;-65
2022/12/15 20:21:00;;;;;;;59.40;26.70;;;;;;;-8.88;73.05;99514.89;210366;1295;140248;-65
2022/12/15 20:26:06;;;;;;;81.50;27.30;;;;;;;-8.98;73.48;99522.70;210224;1287;141010;-66
2022/12/15 20:31:16;;;;;;;71.00;26.10;;;;;;;-9.02;73.88;99527.97;210307;1295;140612;-66
2022/12/15 20:36:25;;;;;;;72.80;27.90;;;;;;;-9.00;73.72;99522.64;210267;1288;140609;-66
2022/12/15 20:41:30;;;;;;;64.90;25.30;;;;;;;-9.15;73.04;99531.69;209022;1291;142240;-66
2022/12/15 20:46:35;;;;;;;122.20;47.10;;;;;;;-9.32;73.01;99534.00;209559;1295;140442;-68
2022/12/15 20:51:40;;;;;;;139.30;43.00;;;;;;;-9.43;73.29;99526.73;210284;1295;140490;-66
2022/12/15 20:56:46;;;;;;;87.10;38.30;;;;;;;-9.41;73.75;99520.77;210498;1294;139571;-65
2022/12/15 21:01:51;;;;;;;86.40;36.80;;;;;;;-9.57;73.14;99508.39;210452;1302;143504;-66
2022/12/15 21:06:58;;;;;;;56.50;22.90;;;;;;;-9.78;73.35;99510.95;210444;1295;140804;-65
2022/12/15 21:12:23;;;;;;;75.80;30.90;;;;;;;-9.84;73.73;99507.29;210287;1293;141498;-65
2022/12/15 21:17:29;;;;;;;81.70;33.80;;;;;;;-9.71;74.07;99506.97;210305;1295;142047;-66
2022/12/15 21:22:34;;;;;;;97.90;40.00;;;;;;;-9.65;73.91;99508.29;210346;1293;140071;-65
2022/12/15 21:27:39;;;;;;;92.50;38.10;;;;;;;-9.60;74.37;99512.72;210376;1282;140194;-65
2022/12/15 21:32:45;;;;;;;98.90;37.70;;;;;;;-9.44;74.80;99512.75;210327;1286;141019;-65
2022/12/15 21:37:51;;;;;;;129.10;53.50;;;;;;;-9.28;75.12;99509.79;210346;1295;140419;-64
2022/12/15 21:43:02;;;;;;;122.70;53.50;;;;;;;-9.03;75.36;99511.23;210450;1295;161186;-65
2022/12/15 21:53:34;;;;;;;95.00;43.50;;;;;;;-8.91;75.81;99522.48;210471;1298;139864;-65
2022/12/15 21:58:40;;;;;;;107.70;50.10;;;;;;;-8.89;75.40;99528.55;210424;1295;139432;-66
2022/12/15 22:03:52;;;;;;;132.70;52.40;;;;;;;-8.84;75.89;99528.14;210345;1295;140355;-66
2022/12/15 22:08:58;;;;;;;107.70;52.90;;;;;;;-8.73;75.77;99532.27;210396;1294;142122;-65
2022/12/15 22:14:33;;;;;;;121.80;50.00;;;;;;;-8.62;75.86;99532.29;210481;1294;142247;-65
2022/12/15 22:19:38;;;;;;;144.40;55.10;;;;;;;-8.53;76.06;99531.64;210410;1295;152378;-66
2022/12/15 22:24:42;;;;;;;144.70;64.80;;;;;;;-8.38;76.30;99531.27;210328;1295;141876;-67
2022/12/15 22:29:48;;;;;;;142.30;66.50;;;;;;;-8.19;76.70;99525.82;209747;1294;231792;-66
2022/12/15 22:34:52;;;;;;;139.10;67.20;;;;;;;-8.07;76.72;99532.95;210160;1294;139724;-65
2022/12/15 22:39:55;;;;;;;136.60;64.30;;;;;;;-8.02;76.98;99533.41;210273;1295;224167;-65
2022/12/15 22:44:59;;;;;;;117.20;60.50;;;;;;;-7.89;77.08;99525.83;210309;1285;140740;-66
2022/12/15 22:50:04;;;;;;;86.50;39.20;;;;;;;-7.76;77.10;99519.94;210578;1285;141039;-64
2022/12/15 22:55:14;;;;;;;103.30;45.60;;;;;;;-7.78;77.04;99506.48;209212;1293;140386;-65
2022/12/15 23:00:20;;;;;;;119.30;52.10;;;;;;;-7.67;76.84;99499.06;209282;1271;140700;-64
2022/12/15 23:05:24;;;;;;;112.80;49.20;;;;;;;-7.65;76.77;99497.47;210118;1295;140501;-65
2022/12/15 23:21:20;;;;;;;122.40;56.80;;;;;;;-7.37;77.32;99488.08;210421;1293;139801;-65
2022/12/15 23:26:26;;;;;;;103.30;43.70;;;;;;;-7.31;77.37;99491.41;210323;1295;139636;-65
2022/12/15 23:31:30;;;;;;;144.40;57.00;;;;;;;-7.35;77.40;99489.52;210350;1286;140179;-66
2022/12/15 23:36:36;;;;;;;93.70;43.10;;;;;;;-7.34;77.56;99491.95;210426;1295;140058;-65
2022/12/15 23:41:41;;;;;;;91.40;37.30;;;;;;;-7.33;77.67;99491.41;210424;1284;139720;-65
2022/12/15 23:46:46;;;;;;;106.60;51.80;;;;;;;-7.35;77.66;99486.23;210253;1294;140269;-66
2022/12/15 23:51:51;;;;;;;123.40;55.30;;;;;;;-7.28;77.71;99485.21;210169;1295;142019;-66
2022/12/15 23:56:58;;;;;;;137.10;58.80;;;;;;;-7.20;77.69;99479.21;208075;1292;141347;-68
